WetterOnline ( https://www.wetteronline.de )

Wetter aktuell Theilenhofen

Aktuelles Wetter: Weißenburg (424m)

6-stündlich | Neueste Meldungen
Ortszeit Temperatur Wetter
So, 16.06. 2:00 16.3° C Regen
Sa, 15.06. 20:00 21.0° C bewölkt
Sa, 15.06. 14:00 22.8° C bewölkt
Sa, 15.06. 8:00 21.9° C wolkenlos
Sa, 15.06. 2:00 18.3° C bedeckt
Fr, 14.06. 20:00 24.8° C bewölkt
Fr, 14.06. 14:00 28.0° C fast wolkenlos
Fr, 14.06. 8:00 18.2° C wolkenlos
Ortszeit Temperatur Wetter
So, 16.06. 2:30 15.8° C starker Regen
So, 16.06. 2:20 15.8° C starker Regen
So, 16.06. 2:10 16.2° C Regen
So, 16.06. 2:00 16.3° C Regen
So, 16.06. 1:40 16.2° C Regen
So, 16.06. 1:30 16.3° C Regen
So, 16.06. 1:00 16.4° C Regen
Ortszeit Relative Feuchte Sichtweite
So, 16.06. 2:00 96% 4.6 km
Sa, 15.06. 20:00 59% 70 km
Sa, 15.06. 14:00 55% 55 km
Sa, 15.06. 8:00 55% 23 km
Sa, 15.06. 2:00 81% 29 km
Fr, 14.06. 20:00 55% 55 km
Fr, 14.06. 14:00 34% 30 km
Fr, 14.06. 8:00 69% 35 km
Ortszeit Relative Feuchte Sichtweite
So, 16.06. 2:30 95% 1.8 km
So, 16.06. 2:20 95% -
So, 16.06. 2:10 93% -
So, 16.06. 2:00 96% 4.6 km
So, 16.06. 1:40 95% -
So, 16.06. 1:30 94% 7 km
So, 16.06. 1:00 93% 3.8 km
Ortszeit Niederschlagsmenge Niederschlagsart
So, 16.06. 2:00 4 l/m2 in 6 Std. Regen
Sa, 15.06. 20:00 0.0 l/m2 in 12 Std. -
Sa, 15.06. 14:00 0.0 l/m2 in 6 Std. -
Sa, 15.06. 8:00 0.0 l/m2 in 12 Std. -
Sa, 15.06. 2:00 0.0 l/m2 in 6 Std. -
Fr, 14.06. 20:00 0.0 l/m2 in 12 Std. -
Fr, 14.06. 14:00 0.0 l/m2 in 6 Std. -
Fr, 14.06. 8:00 0.0 l/m2 in 12 Std. -
Ortszeit Niederschlagsmenge Niederschlagsart
So, 16.06. 2:30 4.9 l/m2 in 1 Std. -
So, 16.06. 2:20 keine Meldung -
So, 16.06. 2:10 keine Meldung -
So, 16.06. 2:00 2.3 l/m2 in 1 Std. Regen
So, 16.06. 1:40 keine Meldung -
So, 16.06. 1:30 0.9 l/m2 in 1 Std. -
So, 16.06. 1:00 2.0 l/m2 in 1 Std. Regen
Ortszeit Stärke Spitze Richtung
km/h Bft. km/h Grad Sektor
So, 16.06. 2:00 14 3 25 210° SW
Sa, 15.06. 20:00 14 3 40 310° NW
Sa, 15.06. 14:00 14 3 43 310° NW
Sa, 15.06. 8:00 20 4 33 260° W
Sa, 15.06. 2:00 7 2 22 180° S
Fr, 14.06. 20:00 13 3 26 330° NW
Fr, 14.06. 14:00 15 3 44 150° SO
Fr, 14.06. 8:00 2 1 15 240° SW
Ortszeit Stärke Spitze Richtung
km/h Bft. km/h Grad Sektor
So, 16.06. 2:30 7 2 18 340° N
So, 16.06. 2:20 7 2 - 340° N
So, 16.06. 2:10 9 2 - 240° SW
So, 16.06. 2:00 14 3 25 210° SW
So, 16.06. 1:40 14 3 - 250° W
So, 16.06. 1:30 14 3 25 300° NW
So, 16.06. 1:00 15 3 20 340° N
Ortszeit Untergrenze Bedeckung Gattung
total tief tief mittel hoch
So, 16.06. 2:00 780 m 8/8 8/8 - - -
Sa, 15.06. 20:00 3000 m 8/8 7/8 - - -
Sa, 15.06. 14:00 1290 m 7/8 7/8 - - -
Sa, 15.06. 8:00 3300 m 0/8 0/8 - - -
Sa, 15.06. 2:00 3900 m 8/8 8/8 - - -
Fr, 14.06. 20:00 5400 m 8/8 4/8 - - -
Fr, 14.06. 14:00 9000 m 2/8 0/8 - - -
Fr, 14.06. 8:00 - 0/8 0/8 - - -
Ortszeit Bedeckungsgrad in Achtel und Wolkenuntergrenze
So, 16.06. 2:30 4(810m) 6(1050m) 7(1800m)
So, 16.06. 2:20 4(810m) 6(1050m) 7(1800m)
So, 16.06. 2:10 2(690m) 7(1800m) 8(2400m)
So, 16.06. 2:00 2(780m) 8(2400m) 8(2400m)
So, 16.06. 1:40 7(2400m)
So, 16.06. 1:30 1(1140m) 8(2700m)
So, 16.06. 1:00 6(1800m) 7(2400m) 8(2700m)
Ortszeit Luftdruck NN (hPa) Tendenz (hPa in 3 Std.)
So, 16.06. 2:00 1018 + 2,8
Sa, 15.06. 20:00 1015 - 0,3
Sa, 15.06. 14:00 1015 + 0,9
Sa, 15.06. 8:00 1011 + 3,0
Sa, 15.06. 2:00 1010 - 0,8
Fr, 14.06. 20:00 1012 - 1,3
Fr, 14.06. 14:00 1015 - 0,2
Fr, 14.06. 8:00 1017 - 0,2
Ortszeit Luftdruck NN (hPa) Tendenz (hPa in 3 Std.)
So, 16.06. 2:30 1019 + 3,1
So, 16.06. 2:20 1019 keine Meldung
So, 16.06. 2:10 1019 keine Meldung
So, 16.06. 2:00 1018 + 2,8
So, 16.06. 1:40 1018 keine Meldung
So, 16.06. 1:30 1017 + 2,0
So, 16.06. 1:00 1017 + 1,5
Ortszeit Schneehöhe (cm)
So, 16.06. 2:00 -
Sa, 15.06. 20:00 -
Sa, 15.06. 14:00 -
Sa, 15.06. 8:00 -
Sa, 15.06. 2:00 -
Fr, 14.06. 20:00 -
Fr, 14.06. 14:00 -
Fr, 14.06. 8:00 -
Ortszeit Schneehöhe (cm)
So, 16.06. 2:30 -
So, 16.06. 2:20 -
So, 16.06. 2:10 -
So, 16.06. 2:00 -
So, 16.06. 1:40 -
So, 16.06. 1:30 -
So, 16.06. 1:00 -
Link zu dieser Seite / Seite empfehlen

Das Wetter in ...